createdAt,value
2024-02-28T00:00:42.030Z,33.60
2024-02-28T00:03:08.712Z,33.40
2024-02-28T00:05:35.328Z,34.83
2024-02-28T00:08:01.887Z,34.00
2024-02-28T00:10:28.430Z,34.13
2024-02-28T00:12:55.069Z,35.58
2024-02-28T00:15:21.763Z,34.13
2024-02-28T00:17:48.368Z,34.60
2024-02-28T00:20:15.321Z,35.45
2024-02-28T00:22:43.625Z,35.88
2024-02-28T00:25:12.258Z,35.25
2024-02-28T00:27:38.896Z,35.80
2024-02-28T00:30:07.897Z,34.60
2024-02-28T00:32:34.646Z,36.17
2024-02-28T00:35:01.313Z,37.40
2024-02-28T00:37:28.082Z,35.92
2024-02-28T00:39:54.858Z,35.78
2024-02-28T00:42:21.528Z,36.78
2024-02-28T00:44:48.140Z,36.53
2024-02-28T00:47:14.742Z,36.80
2024-02-28T00:49:41.296Z,36.50
2024-02-28T00:52:07.851Z,35.40
2024-02-28T00:54:34.448Z,36.03
2024-02-28T00:57:01.099Z,36.38
2024-02-28T00:59:27.787Z,35.95
2024-02-28T01:01:54.389Z,37.30
2024-02-28T01:04:21.008Z,37.85
2024-02-28T01:06:47.747Z,39.65
2024-02-28T01:09:14.509Z,39.88
2024-02-28T01:11:41.188Z,39.72
2024-02-28T01:14:07.740Z,39.42
2024-02-28T01:16:34.622Z,40.53
2024-02-28T01:19:01.209Z,39.90
2024-02-28T01:21:27.946Z,39.65
2024-02-28T01:23:54.597Z,38.40
2024-02-28T01:26:23.221Z,38.97
2024-02-28T01:28:51.615Z,38.55
2024-02-28T01:31:18.182Z,38.90
2024-02-28T01:33:44.800Z,39.63
2024-02-28T01:36:13.113Z,39.72
2024-02-28T01:38:39.695Z,40.10
2024-02-28T01:41:06.661Z,40.25
2024-02-28T01:43:33.759Z,41.73
2024-02-28T01:46:04.577Z,41.25
2024-02-28T01:48:31.422Z,40.90
2024-02-28T01:50:58.516Z,39.78
2024-02-28T01:53:25.317Z,41.58
2024-02-28T01:55:53.052Z,42.17
2024-02-28T01:58:20.664Z,43.03
2024-02-28T02:00:48.421Z,42.80
2024-02-28T02:03:15.124Z,42.67
2024-02-28T02:05:43.640Z,44.83
2024-02-28T02:08:10.381Z,43.45
2024-02-28T02:10:36.942Z,44.20
2024-02-28T02:13:09.481Z,45.90
2024-02-28T02:15:36.205Z,46.72
2024-02-28T02:18:03.464Z,46.75
2024-02-28T02:20:33.719Z,46.50
2024-02-28T02:23:01.120Z,48.22
2024-02-28T02:25:27.702Z,48.10
2024-02-28T02:27:54.295Z,49.65
2024-02-28T02:30:20.952Z,49.08
2024-02-28T02:32:47.636Z,49.47
2024-02-28T02:35:14.290Z,48.30
2024-02-28T02:37:46.917Z,48.00
2024-02-28T02:40:13.658Z,49.53
2024-02-28T02:42:40.259Z,49.10
2024-02-28T02:45:07.318Z,47.65
2024-02-28T02:47:33.914Z,48.35
2024-02-28T02:50:00.532Z,50.80
2024-02-28T02:52:27.157Z,51.30
2024-02-28T02:54:53.757Z,47.78
2024-02-28T02:57:21.027Z,49.10
2024-02-28T02:59:47.616Z,48.05
2024-02-28T03:02:14.150Z,50.90
2024-02-28T03:04:40.747Z,49.90
2024-02-28T03:07:07.346Z,49.88
2024-02-28T03:09:35.037Z,49.03
2024-02-28T03:12:01.656Z,49.20
2024-02-28T03:14:28.396Z,49.92
2024-02-28T03:16:55.020Z,49.60
2024-02-28T03:19:22.012Z,50.65
2024-02-28T03:21:48.599Z,50.20
2024-02-28T03:24:15.305Z,49.38
2024-02-28T03:26:41.982Z,47.58
2024-02-28T03:29:08.541Z,49.30
2024-02-28T03:31:35.185Z,49.85
2024-02-28T03:34:01.932Z,50.00
2024-02-28T03:36:29.733Z,51.40
2024-02-28T03:38:56.313Z,49.72
2024-02-28T03:41:23.143Z,52.37
2024-02-28T03:43:49.790Z,50.08
2024-02-28T03:46:16.426Z,51.53
2024-02-28T03:48:43.001Z,51.13
2024-02-28T03:51:09.622Z,51.75
2024-02-28T03:53:36.451Z,51.95
2024-02-28T03:56:04.180Z,50.88
2024-02-28T03:58:30.748Z,51.65
2024-02-28T04:00:57.438Z,53.70
2024-02-28T04:03:24.060Z,52.83
2024-02-28T04:05:50.701Z,52.97
2024-02-28T04:08:17.245Z,53.25
2024-02-28T04:10:43.870Z,51.23
2024-02-28T04:13:10.572Z,51.90
2024-02-28T04:15:38.693Z,51.05
2024-02-28T04:18:05.888Z,52.20
2024-02-28T04:20:32.559Z,51.58
2024-02-28T04:22:59.174Z,52.45
2024-02-28T04:25:25.750Z,53.30
2024-02-28T04:27:52.457Z,55.60
2024-02-28T04:30:19.402Z,53.38
2024-02-28T04:32:46.048Z,54.67
2024-02-28T04:35:12.760Z,56.97
2024-02-28T04:37:39.378Z,57.00
2024-02-28T04:40:07.950Z,54.50
2024-02-28T04:42:34.711Z,53.92
2024-02-28T04:45:01.314Z,53.60
2024-02-28T04:47:33.679Z,54.45
2024-02-28T04:50:07.020Z,53.63
2024-02-28T04:52:34.626Z,54.80
2024-02-28T04:55:01.943Z,55.42
2024-02-28T04:57:28.650Z,56.28
2024-02-28T04:59:55.497Z,55.72
2024-02-28T05:02:26.937Z,55.20
2024-02-28T05:04:53.729Z,54.40
2024-02-28T05:07:20.307Z,53.97
2024-02-28T05:09:47.103Z,53.85
2024-02-28T05:12:13.827Z,53.78
2024-02-28T05:14:40.409Z,51.85
2024-02-28T05:17:07.021Z,53.53
2024-02-28T05:19:33.636Z,54.33
2024-02-28T05:22:02.191Z,56.03
2024-02-28T05:24:28.869Z,53.58
2024-02-28T05:26:55.449Z,52.27
2024-02-28T05:29:21.998Z,53.60
2024-02-28T05:31:48.595Z,53.05
2024-02-28T05:34:15.202Z,53.13
2024-02-28T05:36:42.032Z,54.13
2024-02-28T05:39:09.418Z,53.25
2024-02-28T05:41:35.982Z,52.73
2024-02-28T05:44:02.528Z,54.65
2024-02-28T05:46:29.263Z,52.38
2024-02-28T05:48:55.914Z,41.03
2024-02-28T05:51:23.668Z,33.38
2024-02-28T05:53:50.440Z,44.50
2024-02-28T05:56:18.117Z,39.33
2024-02-28T05:58:46.047Z,42.20
2024-02-28T06:01:16.011Z,36.63
2024-02-28T06:03:42.709Z,38.30
2024-02-28T06:06:09.268Z,31.92
2024-02-28T06:08:41.559Z,30.20
2024-02-28T06:11:09.123Z,30.27
2024-02-28T06:13:35.690Z,35.40
2024-02-28T06:16:03.127Z,42.65
2024-02-28T06:18:34.440Z,45.10
2024-02-28T06:21:01.991Z,44.22
2024-02-28T06:23:29.744Z,46.35
2024-02-28T06:25:57.764Z,49.78
2024-02-28T06:28:24.455Z,50.53
2024-02-28T06:30:51.197Z,49.30
2024-02-28T06:33:17.990Z,48.40
2024-02-28T06:35:44.584Z,46.75
2024-02-28T06:38:11.133Z,51.50
2024-02-28T06:40:37.920Z,48.28
2024-02-28T06:43:05.184Z,46.80
2024-02-28T06:45:31.935Z,47.50
2024-02-28T06:47:59.217Z,51.67
2024-02-28T06:50:25.812Z,49.78
2024-02-28T06:52:54.996Z,49.95
2024-02-28T06:55:22.151Z,51.65
2024-02-28T06:57:49.198Z,50.95
2024-02-28T07:00:17.516Z,49.92
2024-02-28T07:02:44.334Z,52.67
2024-02-28T07:05:11.176Z,52.78
2024-02-28T07:07:37.740Z,54.25
2024-02-28T07:10:05.724Z,49.22
2024-02-28T07:12:32.989Z,47.67
2024-02-28T07:14:59.825Z,44.85
2024-02-28T07:17:26.440Z,41.97
2024-02-28T07:19:52.994Z,42.67
2024-02-28T07:22:19.821Z,45.55
2024-02-28T07:24:46.401Z,43.15
2024-02-28T07:27:13.051Z,45.83
2024-02-28T07:29:39.671Z,45.63
2024-02-28T07:32:06.454Z,46.40
2024-02-28T07:34:33.483Z,46.17
2024-02-28T07:37:00.187Z,44.63
2024-02-28T07:39:26.964Z,44.53
2024-02-28T07:41:56.381Z,42.35
2024-02-28T07:44:23.794Z,41.03
2024-02-28T07:46:52.228Z,43.17
2024-02-28T07:49:19.689Z,42.00
2024-02-28T07:51:46.779Z,42.55
2024-02-28T07:54:13.640Z,41.95
2024-02-28T07:56:40.290Z,41.30
2024-02-28T07:59:06.980Z,40.58
2024-02-28T08:01:34.578Z,42.47
2024-02-28T08:04:03.301Z,43.23
2024-02-28T08:06:30.375Z,42.65
2024-02-28T08:08:56.993Z,40.95
2024-02-28T08:11:24.510Z,39.25
2024-02-28T08:13:51.108Z,40.70
2024-02-28T08:16:17.797Z,41.72
2024-02-28T08:18:44.372Z,40.80
2024-02-28T08:21:10.945Z,40.92
2024-02-28T08:23:37.510Z,37.28
2024-02-28T08:26:04.958Z,38.33
2024-02-28T08:28:31.628Z,38.38
2024-02-28T08:30:59.603Z,40.42
2024-02-28T08:33:26.452Z,40.88
2024-02-28T08:35:53.336Z,37.50
2024-02-28T08:38:19.921Z,37.83
2024-02-28T08:40:46.882Z,40.47
2024-02-28T08:43:13.877Z,41.30
2024-02-28T08:45:40.694Z,40.25
2024-02-28T08:48:08.654Z,40.78
2024-02-28T08:50:35.547Z,41.35
2024-02-28T08:53:03.264Z,40.80
2024-02-28T08:55:30.405Z,38.67
2024-02-28T08:57:57.206Z,39.88
2024-02-28T09:00:24.077Z,42.17
2024-02-28T09:02:50.788Z,44.13
2024-02-28T09:05:17.563Z,44.85
2024-02-28T09:07:44.307Z,46.50
2024-02-28T09:10:12.269Z,45.38
2024-02-28T09:12:39.308Z,45.55
2024-02-28T09:15:06.618Z,45.83
2024-02-28T09:17:33.269Z,39.40
2024-02-28T09:20:02.344Z,40.13
2024-02-28T09:22:29.143Z,43.45
2024-02-28T09:24:55.970Z,41.47
2024-02-28T09:27:22.820Z,40.22
2024-02-28T09:29:49.405Z,41.00
2024-02-28T09:32:16.284Z,42.88
2024-02-28T09:34:43.022Z,46.42
2024-02-28T09:37:09.852Z,46.20
2024-02-28T09:39:39.911Z,44.35
2024-02-28T09:42:08.113Z,41.17
2024-02-28T09:44:35.833Z,42.55
2024-02-28T09:47:02.606Z,40.10
2024-02-28T09:49:32.049Z,40.70
2024-02-28T09:52:00.626Z,41.55
2024-02-28T09:54:27.425Z,43.83
2024-02-28T09:56:54.658Z,42.90
2024-02-28T09:59:24.943Z,38.78
2024-02-28T10:01:59.215Z,37.77
2024-02-28T10:04:28.794Z,39.30
2024-02-28T10:06:55.524Z,37.22
2024-02-28T10:09:22.172Z,35.50
2024-02-28T10:11:48.837Z,34.38
2024-02-28T10:14:20.154Z,33.47
2024-02-28T10:16:46.787Z,32.55
2024-02-28T10:19:14.062Z,31.30
2024-02-28T10:21:40.780Z,33.63
2024-02-28T10:24:07.595Z,32.42
2024-02-28T10:26:39.534Z,29.92
2024-02-28T10:29:08.812Z,29.55
2024-02-28T10:31:36.690Z,30.35
2024-02-28T10:34:05.189Z,30.95
2024-02-28T10:36:34.029Z,29.80
2024-02-28T10:39:02.124Z,29.90
2024-02-28T10:41:29.931Z,30.00
2024-02-28T10:43:56.681Z,30.48
2024-02-28T10:46:35.404Z,34.88
2024-02-28T10:49:03.801Z,38.05
2024-02-28T10:51:37.897Z,33.70
2024-02-28T10:54:12.818Z,44.25
2024-02-28T10:56:42.303Z,35.45
2024-02-28T10:59:14.037Z,27.77
2024-02-28T11:01:43.602Z,27.48
2024-02-28T11:04:12.052Z,28.65
2024-02-28T11:06:53.403Z,27.45
2024-02-28T11:09:29.558Z,26.42
2024-02-28T11:11:57.055Z,25.90
2024-02-28T11:14:26.683Z,26.05
2024-02-28T11:17:04.160Z,26.05
2024-02-28T11:19:35.958Z,26.95
2024-02-28T11:22:04.955Z,26.70
2024-02-28T11:24:33.752Z,25.50
2024-02-28T11:27:00.478Z,23.93
2024-02-28T11:29:29.619Z,24.60
2024-02-28T11:31:56.533Z,24.30
2024-02-28T11:34:23.405Z,25.17
2024-02-28T11:36:52.083Z,24.83
2024-02-28T11:39:19.697Z,24.65
2024-02-28T11:41:47.553Z,24.65
2024-02-28T11:44:18.170Z,24.17
2024-02-28T11:46:54.211Z,23.67
2024-02-28T11:49:20.826Z,24.63
2024-02-28T11:51:47.746Z,24.00
2024-02-28T11:54:14.588Z,24.77
2024-02-28T11:56:42.380Z,23.87
2024-02-28T11:59:11.441Z,24.25
2024-02-28T12:01:47.975Z,25.67
2024-02-28T12:04:14.959Z,24.55
2024-02-28T12:06:42.148Z,24.37
2024-02-28T12:09:10.667Z,22.63
2024-02-28T12:11:38.345Z,24.87
2024-02-28T12:14:08.143Z,23.10
2024-02-28T12:16:34.785Z,22.17
2024-02-28T12:19:01.573Z,22.60
2024-02-28T12:21:28.537Z,22.67
2024-02-28T12:23:57.485Z,22.90
2024-02-28T12:26:24.032Z,22.90
2024-02-28T12:28:50.755Z,23.73
2024-02-28T12:31:17.490Z,23.20
2024-02-28T12:33:44.121Z,25.08
2024-02-28T12:36:11.238Z,26.13
2024-02-28T12:38:37.918Z,26.08
2024-02-28T12:41:05.076Z,27.33
2024-02-28T12:43:33.064Z,27.92
2024-02-28T12:46:00.479Z,28.08
2024-02-28T12:48:27.318Z,29.03
2024-02-28T12:50:53.902Z,28.80
2024-02-28T12:53:20.602Z,27.23
2024-02-28T12:55:47.166Z,27.98
2024-02-28T12:58:13.780Z,52.80
2024-02-28T13:00:43.018Z,39.38
2024-02-28T13:03:10.311Z,29.42
2024-02-28T13:05:37.006Z,49.10
2024-02-28T13:08:04.738Z,39.85
2024-02-28T13:10:31.642Z,32.03
2024-02-28T13:12:58.276Z,32.63
2024-02-28T13:15:25.067Z,35.90
2024-02-28T13:17:53.623Z,28.23
2024-02-28T13:20:20.369Z,29.15
2024-02-28T13:22:46.997Z,38.80
2024-02-28T13:25:15.494Z,36.97
2024-02-28T13:27:42.540Z,33.20
2024-02-28T13:30:09.734Z,37.00
2024-02-28T13:32:36.656Z,52.30
2024-02-28T13:35:03.475Z,36.72
2024-02-28T13:37:30.052Z,47.47
2024-02-28T13:39:57.709Z,42.90
2024-02-28T13:42:25.730Z,54.70
2024-02-28T13:44:52.841Z,42.63
2024-02-28T13:47:19.412Z,43.30
2024-02-28T13:49:46.199Z,26.13
2024-02-28T13:52:12.952Z,21.52
2024-02-28T13:54:39.633Z,30.15
2024-02-28T13:57:07.969Z,26.85
2024-02-28T13:59:35.666Z,24.52
2024-02-28T14:02:02.611Z,26.58
2024-02-28T14:04:29.615Z,28.88
2024-02-28T14:06:56.214Z,31.30
2024-02-28T14:09:22.864Z,27.30
2024-02-28T14:11:49.649Z,34.30
2024-02-28T14:14:16.878Z,25.90
2024-02-28T14:16:44.363Z,24.63
2024-02-28T14:19:11.023Z,25.10
2024-02-28T14:21:37.721Z,25.52
2024-02-28T14:24:04.951Z,25.10
2024-02-28T14:26:31.576Z,25.45
2024-02-28T14:28:58.227Z,24.25
2024-02-28T14:31:25.845Z,25.00
2024-02-28T14:33:52.782Z,26.92
2024-02-28T14:36:21.916Z,27.38
2024-02-28T14:38:48.686Z,29.42
2024-02-28T14:41:15.802Z,25.57
2024-02-28T14:43:42.402Z,25.10
2024-02-28T14:46:11.410Z,41.88
2024-02-28T14:48:38.297Z,26.77
2024-02-28T14:51:05.698Z,37.53
2024-02-28T14:53:32.291Z,33.60
2024-02-28T14:55:59.043Z,32.95
2024-02-28T14:58:25.700Z,28.05
2024-02-28T15:00:52.478Z,45.80
2024-02-28T15:03:19.746Z,26.80
2024-02-28T15:05:46.545Z,29.70
2024-02-28T15:08:15.284Z,23.20
2024-02-28T15:10:42.130Z,22.10
2024-02-28T15:13:08.827Z,31.35
2024-02-28T15:15:36.448Z,19.95
2024-02-28T15:18:04.195Z,18.60
2024-02-28T15:20:30.753Z,17.65
2024-02-28T15:22:57.361Z,15.75
2024-02-28T15:25:24.118Z,14.70
2024-02-28T15:27:50.802Z,15.73
2024-02-28T15:30:17.478Z,15.88
2024-02-28T15:32:44.848Z,15.02
2024-02-28T15:35:12.130Z,15.88
2024-02-28T15:37:39.486Z,16.98
2024-02-28T15:40:07.807Z,16.23
2024-02-28T15:42:35.217Z,15.82
2024-02-28T15:45:01.960Z,15.95
2024-02-28T15:47:31.443Z,16.67
2024-02-28T15:50:00.125Z,17.40
2024-02-28T15:52:26.700Z,17.55
2024-02-28T15:54:53.267Z,16.75
2024-02-28T15:57:19.896Z,18.73
2024-02-28T15:59:46.502Z,19.50
2024-02-28T16:02:13.239Z,18.70
2024-02-28T16:04:39.972Z,20.80
2024-02-28T16:07:08.809Z,18.90
2024-02-28T16:09:35.513Z,19.73
2024-02-28T16:12:03.734Z,19.67
2024-02-28T16:14:30.298Z,19.88
2024-02-28T16:16:56.919Z,19.38
2024-02-28T16:19:27.300Z,20.97
2024-02-28T16:21:55.257Z,20.27
2024-02-28T16:24:22.348Z,18.63
2024-02-28T16:26:49.095Z,19.38
2024-02-28T16:29:15.720Z,22.00
2024-02-28T16:31:44.530Z,20.38
2024-02-28T16:34:11.164Z,21.92
2024-02-28T16:36:38.011Z,22.00
2024-02-28T16:39:04.675Z,20.50
2024-02-28T16:41:31.339Z,21.02
2024-02-28T16:43:58.741Z,20.95
2024-02-28T16:46:25.636Z,24.20
2024-02-28T16:48:52.373Z,22.20
2024-02-28T16:51:20.640Z,23.42
2024-02-28T16:53:47.465Z,24.70
2024-02-28T16:56:14.046Z,24.83
2024-02-28T16:58:44.155Z,24.75
2024-02-28T17:01:11.303Z,25.08
2024-02-28T17:03:38.203Z,25.70
2024-02-28T17:06:06.239Z,25.63
2024-02-28T17:08:36.235Z,26.17
2024-02-28T17:11:04.521Z,25.70
2024-02-28T17:13:31.486Z,26.25
2024-02-28T17:16:03.845Z,24.33
2024-02-28T17:18:32.104Z,25.35
2024-02-28T17:20:59.929Z,24.67
2024-02-28T17:23:26.689Z,25.33
2024-02-28T17:25:56.774Z,26.35
2024-02-28T17:28:23.659Z,25.80
2024-02-28T17:30:50.259Z,26.52
2024-02-28T17:33:17.152Z,26.35
2024-02-28T17:35:45.115Z,26.70
2024-02-28T17:38:11.768Z,26.08
2024-02-28T17:40:38.349Z,27.20
2024-02-28T17:43:05.499Z,26.77
2024-02-28T17:45:32.381Z,27.48
2024-02-28T17:47:59.470Z,27.67
2024-02-28T17:50:26.241Z,26.52
2024-02-28T17:52:52.958Z,27.83
2024-02-28T17:55:19.698Z,25.92
2024-02-28T17:57:47.577Z,26.20
2024-02-28T18:00:14.579Z,27.10
2024-02-28T18:02:42.340Z,26.40
2024-02-28T18:05:10.419Z,27.75
2024-02-28T18:07:37.292Z,26.88
2024-02-28T18:10:08.166Z,26.92
2024-02-28T18:12:35.018Z,26.63
2024-02-28T18:15:01.706Z,26.45
2024-02-28T18:17:29.418Z,26.30
2024-02-28T18:19:56.129Z,26.17
2024-02-28T18:22:22.669Z,26.70
2024-02-28T18:24:49.361Z,25.47
2024-02-28T18:27:15.970Z,26.83
2024-02-28T18:29:42.832Z,25.13
2024-02-28T18:32:09.764Z,27.05
2024-02-28T18:34:36.413Z,26.65
2024-02-28T18:37:03.318Z,26.08
2024-02-28T18:39:30.028Z,25.27
2024-02-28T18:41:59.366Z,25.30
2024-02-28T18:44:26.426Z,24.88
2024-02-28T18:46:53.024Z,26.63
2024-02-28T18:49:19.841Z,25.10
2024-02-28T18:51:46.755Z,23.38
2024-02-28T18:54:13.360Z,24.52
2024-02-28T18:56:40.023Z,24.00
2024-02-28T18:59:06.641Z,22.73
2024-02-28T19:01:33.318Z,23.35
2024-02-28T19:04:00.317Z,22.52
2024-02-28T19:06:27.361Z,23.17
2024-02-28T19:08:53.985Z,25.58
2024-02-28T19:11:21.048Z,25.27
2024-02-28T19:13:47.803Z,25.05
2024-02-28T19:16:15.063Z,24.13
2024-02-28T19:18:42.995Z,24.08
2024-02-28T19:21:09.712Z,26.30
2024-02-28T19:23:38.106Z,30.48
2024-02-28T19:26:05.019Z,31.20
2024-02-28T19:28:31.570Z,30.13
2024-02-28T19:31:01.200Z,31.42
